Skip Navigation Links Skip Navigation Links

Current Weather

Polyarny, Russia

For information only: do not use for flight planning or navigation.
Latest weather
Observation time Wednesday, October 27, 2021 1:30 PM +08
Local time Wednesday, October 27, 2021 1:51 PM +08
Flight conditions Visual Meteorological Conditions
Winds
Wind direction East-Southeast (110°)
Wind speed 7 mph
Visibility 6.2 mi.
Sky condition
Ceiling unlimited
Sky clear
Temperature 12°F
Dewpoint 9°F
Altimeter 29.53 in.Hg
Precipitation
QF 12:46 AM
Derived measurements
Relative humidity 85%
Wind chill 2°F
Density altitude -1090 ft.
Remarks
Ceiling and visibility OK.
No significant changes expected in the next two hours.
METAR UERP 270530Z 11003MPS CAVOK M11/M13 Q1000 R35/450242 NOSIG RMK QFE706

Settings

Location code

InnerDrive.Weather 4.0.6770.0 Release CLR 4.0.30319.42000
Copyright ©2018 Inner Drive Technology. All rights reserved. Portions Copyright ©1986-2018 David Braverman.

Find weather

Site navigation


Skip Navigation Links

Place info

Page info

PayPal - The safer, easier way to pay online!

Return home.

Copyright ©2021 Inner Drive Technology. Purveyors of fine, hand-crafted computer software. Page printed 2021-10-27T05:51:54 UTC.